Arrowsmith, Illinois
Current Conditions -  °F | °C
As of 3:56 PM on Monday 22 Dec 2014 (Local Time) from KBMI Reporting Station
Light Rain Light Rain  
Wind Chill: 34°   Ceiling: 200
Heat Index: 42°   Visibility: 1.7mi
Dew Point: 42°   Wind: 16mph
Humidity: 100%   Direction: 140°SE
Pressure: 29.62"   Gusts: NA
Location:  40.45°N, 88.63°W
Report Text: KBMI 222156Z 14014KT 1 3/4SM -RA BR OVC002 06/06 A2962 RMK AO2 T00550055 P0005 SLP041
Loading
Personal Weather Stations






























Interactive Weather Map New forecast layout! Learn more

10-Day Weather Forecast

Advertisements
Track Severe Weather on mobile